Time;durP1;ratioP1;P1;durP2;ratioP2;P2;SDS_P1;SDS_P2;PMS_P1;PMS_P2;Temp;Humidity;BMP_temperature;BMP_pressure;BME280_temperature;BME280_humidity;BME280_pressure;Samples;Min_cycle;Max_cycle;Signal;HPM_P1;HPM_P2
2022/05/19 00:02:09;;;;;;;9.27;2.78;;;;;;;20.32;42.61;101058.63;5010992;28;20125;-70
2022/05/19 00:04:36;;;;;;;2.70;1.02;;;;;;;20.39;42.43;101055.97;5011374;28;20042;-71
2022/05/19 00:07:02;;;;;;;5.45;1.30;;;;;;;20.46;42.22;101052.53;5011440;28;20427;-70
2022/05/19 00:09:28;;;;;;;6.65;1.65;;;;;;;20.41;42.41;101045.31;5011626;28;20030;-70
2022/05/19 00:11:55;;;;;;;8.23;2.05;;;;;;;20.25;42.69;101050.19;5014666;28;20036;-70
2022/05/19 00:14:21;;;;;;;7.05;2.05;;;;;;;19.84;43.55;101060.16;5012786;28;20365;-70
2022/05/19 00:16:48;;;;;;;6.60;1.40;;;;;;;20.19;42.72;101060.00;5014738;28;20050;-71
2022/05/19 00:19:14;;;;;;;6.53;1.90;;;;;;;20.17;42.79;101065.09;5014818;28;20030;-71
2022/05/19 00:21:41;;;;;;;8.30;1.83;;;;;;;20.04;43.07;101069.25;5014403;28;20037;-71
2022/05/19 00:24:08;;;;;;;5.28;2.05;;;;;;;19.85;43.40;101065.34;5014691;28;20029;-71
2022/05/19 00:26:33;;;;;;;5.28;1.73;;;;;;;20.05;42.81;101079.97;5013420;28;20506;-70
2022/05/19 00:28:59;;;;;;;9.07;2.15;;;;;;;20.11;42.65;101089.59;5012984;28;20034;-72
2022/05/19 00:31:26;;;;;;;5.95;2.35;;;;;;;20.08;42.75;101083.97;5014281;28;20399;-71
2022/05/19 00:33:52;;;;;;;8.25;1.92;;;;;;;19.98;42.87;101093.72;5014528;28;20049;-71
2022/05/19 00:36:19;;;;;;;15.27;2.30;;;;;;;20.01;42.84;101092.16;5014436;28;20496;-71
2022/05/19 00:38:45;;;;;;;7.82;1.67;;;;;;;20.08;42.58;101098.63;5014287;28;20030;-71
2022/05/19 00:41:13;;;;;;;5.93;1.83;;;;;;;20.01;42.63;101101.28;5012756;28;20036;-71
2022/05/19 00:43:41;;;;;;;9.60;2.40;;;;;;;19.97;42.85;101102.41;5014172;28;20058;-71
2022/05/19 00:46:13;;;;;;;7.68;1.48;;;;;;;19.88;42.94;101097.91;5014609;28;20444;-70
2022/05/19 00:48:50;;;;;;;8.63;1.63;;;;;;;19.81;43.06;101099.72;5014229;28;20036;-70
2022/05/19 00:51:18;;;;;;;4.47;1.38;;;;;;;19.62;43.31;101098.56;5013894;28;20481;-71
2022/05/19 00:53:56;;;;;;;4.43;1.67;;;;;;;19.70;43.19;101107.81;5014220;28;20029;-70
2022/05/19 00:56:36;;;;;;;7.28;1.63;;;;;;;19.91;42.75;101105.47;5014026;28;20061;-71
2022/05/19 00:59:10;;;;;;;6.28;2.00;;;;;;;19.99;42.49;101109.19;5014134;28;20105;-70
2022/05/19 01:01:39;;;;;;;7.63;2.45;;;;;;;20.07;42.21;101118.44;5013850;28;20042;-71
2022/05/19 01:04:15;;;;;;;6.65;1.80;;;;;;;20.06;42.15;101123.19;5014187;28;20072;-71
2022/05/19 01:06:43;;;;;;;10.43;2.15;;;;;;;20.03;42.28;101120.34;5013858;28;20025;-71
2022/05/19 01:09:14;;;;;;;5.18;1.23;;;;;;;19.98;42.30;101124.22;5013763;28;20499;-71
2022/05/19 01:11:41;;;;;;;6.05;1.65;;;;;;;19.94;42.25;101126.91;5013535;28;20124;-71
2022/05/19 01:14:07;;;;;;;6.68;2.58;;;;;;;19.95;42.31;101125.75;5013700;28;20018;-71
2022/05/19 01:16:33;;;;;;;8.32;1.60;;;;;;;19.91;42.33;101122.09;5013726;28;20026;-70
2022/05/19 01:18:59;;;;;;;11.63;2.20;;;;;;;19.87;42.33;101126.78;5013665;28;20026;-71
2022/05/19 01:21:27;;;;;;;8.95;2.42;;;;;;;19.82;42.55;101126.28;5012549;28;20030;-71
2022/05/19 01:24:16;;;;;;;7.47;2.38;;;;;;;19.79;42.57;101124.22;5013843;28;20105;-71
2022/05/19 01:26:47;;;;;;;9.50;1.75;;;;;;;19.78;42.49;101128.19;5013586;28;20384;-71
2022/05/19 01:29:15;;;;;;;13.25;2.72;;;;;;;19.73;42.48;101134.03;5013828;28;20104;-71
2022/05/19 01:31:48;;;;;;;7.25;1.70;;;;;;;19.65;42.61;101135.88;5013053;28;20017;-74
2022/05/19 01:34:16;;;;;;;5.63;1.83;;;;;;;19.65;42.58;101131.13;5013405;28;20033;-71
2022/05/19 01:36:42;;;;;;;4.68;1.20;;;;;;;19.72;42.44;101135.97;5013372;28;20026;-71
2022/05/19 01:39:31;;;;;;;7.05;1.90;;;;;;;19.56;42.85;101124.94;5013512;28;20030;-71
2022/05/19 01:41:56;;;;;;;6.70;2.22;;;;;;;19.70;42.44;101132.78;5013023;28;20034;-71
2022/05/19 01:44:38;;;;;;;8.40;1.85;;;;;;;19.64;42.76;101134.22;5013046;28;20107;-74
2022/05/19 01:47:10;;;;;;;3.95;2.15;;;;;;;19.70;42.54;101138.31;5013460;28;20030;-71
2022/05/19 01:49:44;;;;;;;9.02;1.95;;;;;;;19.68;42.35;101138.69;5013187;28;20030;-71
2022/05/19 01:52:22;;;;;;;4.65;1.40;;;;;;;19.67;42.44;101144.59;5011382;28;20488;-70
2022/05/19 01:55:09;;;;;;;8.90;1.70;;;;;;;19.61;42.42;101157.94;5009734;28;20037;-70
2022/05/19 01:57:42;;;;;;;7.75;1.80;;;;;;;19.65;42.30;101155.28;5012951;28;20061;-71
2022/05/19 02:00:18;;;;;;;7.95;1.75;;;;;;;19.49;42.69;101160.00;5012657;28;20427;-71
2022/05/19 02:02:55;;;;;;;5.88;1.50;;;;;;;19.50;42.63;101162.44;5013182;28;20032;-71
2022/05/19 02:05:50;;;;;;;8.35;2.15;;;;;;;19.41;42.75;101167.38;5012906;28;20026;-71
2022/05/19 02:08:22;;;;;;;6.20;1.95;;;;;;;19.46;42.62;101171.84;5011538;28;20034;-71
2022/05/19 02:10:51;;;;;;;7.57;1.60;;;;;;;19.46;42.71;101174.59;5012491;28;20021;-70
2022/05/19 02:13:17;;;;;;;3.78;1.65;;;;;;;19.42;42.67;101168.97;5012495;28;20037;-71
2022/05/19 02:15:45;;;;;;;8.02;1.90;;;;;;;19.50;42.43;101181.84;5012582;28;20539;-71
2022/05/19 02:18:13;;;;;;;6.53;1.67;;;;;;;19.50;42.46;101176.31;5012909;28;20366;-71
2022/05/19 02:20:42;;;;;;;14.02;2.03;;;;;;;19.43;42.66;101183.66;5012206;28;20030;-71
2022/05/19 02:23:11;;;;;;;7.23;1.43;;;;;;;19.45;43.00;101178.56;5012557;28;20105;-71
2022/05/19 02:25:43;;;;;;;9.30;1.73;;;;;;;19.47;42.45;101178.97;5012588;28;20096;-71
2022/05/19 02:28:24;;;;;;;5.85;1.60;;;;;;;19.49;42.33;101182.97;5012485;28;20038;-71
2022/05/19 02:30:50;;;;;;;3.95;1.92;;;;;;;19.53;41.89;101194.97;5012059;28;20088;-71
2022/05/19 02:33:17;;;;;;;6.78;1.35;;;;;;;19.51;42.22;101190.97;5011421;28;20030;-71
2022/05/19 02:35:44;;;;;;;6.05;1.42;;;;;;;19.45;42.41;101193.22;5012314;28;20041;-71
2022/05/19 02:38:11;;;;;;;5.05;1.27;;;;;;;19.46;42.21;101203.13;5012314;28;20080;-71
2022/05/19 02:40:38;;;;;;;6.03;1.77;;;;;;;19.41;42.42;101200.63;5011764;28;20034;-71
2022/05/19 02:43:05;;;;;;;7.32;2.00;;;;;;;19.46;42.13;101208.66;5010974;28;20124;-70
2022/05/19 02:45:31;;;;;;;5.28;1.48;;;;;;;19.53;42.21;101210.78;5011980;28;20057;-71
2022/05/19 02:47:58;;;;;;;12.95;2.70;;;;;;;19.40;42.30;101224.75;5010920;28;20548;-71
2022/05/19 02:50:24;;;;;;;5.10;1.67;;;;;;;19.36;42.30;101232.22;5011761;28;20758;-71
2022/05/19 02:52:50;;;;;;;5.60;1.80;;;;;;;19.37;42.18;101227.47;5010655;28;20117;-71
2022/05/19 02:55:16;;;;;;;3.90;1.73;;;;;;;19.44;42.01;101229.59;5011713;28;20399;-71
2022/05/19 02:57:43;;;;;;;6.13;1.80;;;;;;;19.44;41.86;101237.91;5012079;28;20384;-71
2022/05/19 03:00:12;;;;;;;9.70;2.28;;;;;;;19.30;42.10;101236.41;5011660;28;20043;-71
2022/05/19 03:02:41;;;;;;;6.45;1.88;;;;;;;19.25;42.20;101242.22;5010767;28;20112;-71
2022/05/19 03:05:09;;;;;;;8.90;2.28;;;;;;;19.23;42.19;101247.31;5011917;28;20116;-71
2022/05/19 03:07:35;;;;;;;7.07;1.80;;;;;;;19.25;42.12;101246.97;5010713;28;20021;-71
2022/05/19 03:10:01;;;;;;;12.30;1.83;;;;;;;19.31;41.96;101239.97;5011831;28;20037;-71
2022/05/19 03:12:27;;;;;;;7.32;1.58;;;;;;;19.17;42.15;101245.97;5011632;28;20496;-71
2022/05/19 03:14:54;;;;;;;6.45;1.40;;;;;;;19.18;42.27;101247.59;5010561;28;20091;-71
2022/05/19 03:17:20;;;;;;;8.32;2.08;;;;;;;19.06;42.44;101251.28;5010482;28;20103;-71
2022/05/19 03:19:46;;;;;;;6.45;1.70;;;;;;;19.17;42.17;101254.28;5011433;28;20018;-71
2022/05/19 03:22:11;;;;;;;9.00;2.17;;;;;;;19.14;42.02;101252.25;5012107;28;20029;-70
2022/05/19 03:24:37;;;;;;;8.23;2.13;;;;;;;19.06;42.28;101253.25;5011550;28;20392;-71
2022/05/19 03:27:03;;;;;;;9.15;1.77;;;;;;;19.08;42.04;101256.44;5011793;28;20042;-71
2022/05/19 03:29:29;;;;;;;8.07;1.95;;;;;;;19.04;41.94;101250.00;5011742;28;20029;-71
2022/05/19 03:31:54;;;;;;;9.23;1.95;;;;;;;19.12;41.89;101260.13;5011299;28;20026;-71
2022/05/19 03:34:20;;;;;;;6.75;1.80;;;;;;;19.04;42.05;101266.63;5011635;28;20392;-71
2022/05/19 03:36:47;;;;;;;8.65;3.25;;;;;;;18.99;42.05;101264.94;5011631;28;20045;-71
2022/05/19 03:39:13;;;;;;;8.35;2.03;;;;;;;19.02;42.02;101266.97;5011592;28;20030;-71
2022/05/19 03:41:39;;;;;;;9.27;1.73;;;;;;;18.99;41.83;101267.72;5011308;28;20488;-71
2022/05/19 03:44:05;;;;;;;9.80;2.22;;;;;;;19.02;41.68;101275.28;5011408;28;20100;-71
2022/05/19 03:46:31;;;;;;;6.03;1.58;;;;;;;19.25;41.25;101275.47;5013875;28;20026;-71
2022/05/19 03:48:56;;;;;;;15.32;2.72;;;;;;;19.28;41.13;101276.72;5015152;28;20076;-71
2022/05/19 03:51:24;;;;;;;6.03;2.08;;;;;;;19.40;40.77;101277.41;5015065;28;20026;-71
2022/05/19 03:53:51;;;;;;;8.98;1.48;;;;;;;19.25;40.96;101289.31;5015329;28;20026;-71
2022/05/19 03:56:18;;;;;;;12.40;2.08;;;;;;;19.23;41.03;101282.53;5015147;28;20018;-71
2022/05/19 03:58:44;;;;;;;11.98;2.35;;;;;;;19.32;40.84;101289.50;5013888;28;20025;-71
2022/05/19 04:01:10;;;;;;;8.43;2.20;;;;;;;19.09;41.35;101285.75;5013507;28;20042;-71
2022/05/19 04:03:36;;;;;;;6.13;1.88;;;;;;;19.05;41.35;101290.41;5013834;28;20026;-71
2022/05/19 04:06:01;;;;;;;6.38;1.75;;;;;;;19.14;41.13;101293.81;5015072;28;20048;-71
2022/05/19 04:08:27;;;;;;;9.38;1.98;;;;;;;19.20;40.99;101292.38;5015109;28;20074;-71
2022/05/19 04:10:53;;;;;;;6.32;2.00;;;;;;;19.17;40.96;101293.06;5014563;28;20045;-71
2022/05/19 04:13:18;;;;;;;8.48;2.08;;;;;;;19.09;41.14;101302.38;5014987;28;20471;-71
2022/05/19 04:15:44;;;;;;;7.97;1.70;;;;;;;19.08;41.11;101304.34;5014936;28;20480;-71
2022/05/19 04:18:09;;;;;;;7.00;1.88;;;;;;;19.13;41.01;101297.75;5014652;28;20033;-71
2022/05/19 04:20:35;;;;;;;6.70;2.05;;;;;;;19.13;40.87;101301.31;5014800;28;20044;-71
2022/05/19 04:23:01;;;;;;;9.98;1.92;;;;;;;19.10;40.94;101298.44;5014732;28;20384;-71
2022/05/19 04:25:28;;;;;;;9.05;2.08;;;;;;;19.04;41.10;101295.16;5014993;28;20075;-71
2022/05/19 04:27:53;;;;;;;4.78;1.60;;;;;;;18.95;41.13;101296.47;5014674;28;20109;-71
2022/05/19 04:30:19;;;;;;;12.25;2.40;;;;;;;18.92;41.09;101300.75;5012970;28;20117;-71
2022/05/19 04:32:44;;;;;;;6.35;2.15;;;;;;;19.06;41.00;101303.91;5014530;28;20030;-71
2022/05/19 04:35:12;;;;;;;8.85;2.25;;;;;;;19.08;40.78;101307.09;5014545;28;20045;-71
2022/05/19 04:37:38;;;;;;;10.48;2.90;;;;;;;19.09;40.80;101303.16;5014831;28;20073;-71
2022/05/19 04:40:04;;;;;;;10.15;1.90;;;;;;;18.88;41.36;101307.34;5014083;28;20034;-71
2022/05/19 04:42:30;;;;;;;10.32;2.72;;;;;;;18.75;41.89;101310.22;5014323;28;20036;-71
2022/05/19 04:44:56;;;;;;;11.50;2.53;;;;;;;18.78;41.63;101314.22;5014117;28;20054;-71
2022/05/19 04:47:22;;;;;;;17.60;2.97;;;;;;;19.07;41.38;101315.78;5013062;28;20116;-71
2022/05/19 04:49:47;;;;;;;9.15;2.55;;;;;;;18.95;41.44;101308.34;5014542;28;20121;-70
2022/05/19 04:52:13;;;;;;;10.15;2.47;;;;;;;18.92;41.62;101313.81;5014097;28;20034;-70
2022/05/19 04:54:39;;;;;;;10.40;2.92;;;;;;;18.72;42.33;101310.91;5014189;28;20040;-71
2022/05/19 04:57:05;;;;;;;8.68;2.10;;;;;;;18.81;42.06;101317.06;5012968;28;20057;-71
2022/05/19 04:59:32;;;;;;;14.02;2.40;;;;;;;18.78;42.14;101317.78;5014285;28;20057;-70
2022/05/19 05:01:58;;;;;;;12.63;2.67;;;;;;;18.82;42.14;101321.47;5012469;28;20042;-71
2022/05/19 05:04:26;;;;;;;13.57;2.55;;;;;;;18.87;42.03;101317.63;5014000;28;20539;-71
2022/05/19 05:06:52;;;;;;;12.15;2.20;;;;;;;18.91;42.09;101320.50;5014260;28;20034;-71
2022/05/19 05:09:18;;;;;;;12.50;2.70;;;;;;;18.85;42.20;101329.06;5013918;28;20109;-71
2022/05/19 05:11:44;;;;;;;13.13;2.28;;;;;;;18.97;42.15;101328.19;5013648;28;20133;-70
2022/05/19 05:14:10;;;;;;;9.73;2.42;;;;;;;19.01;42.05;101331.03;5013853;28;20076;-71
2022/05/19 05:16:36;;;;;;;8.88;2.10;;;;;;;19.14;41.72;101332.59;5013952;28;20040;-71
2022/05/19 05:19:03;;;;;;;9.75;2.60;;;;;;;19.01;42.12;101342.94;5012547;28;20531;-70
2022/05/19 05:21:28;;;;;;;12.18;2.35;;;;;;;19.01;42.17;101342.13;5013415;28;20077;-72
2022/05/19 05:23:54;;;;;;;10.32;2.10;;;;;;;19.08;42.25;101345.06;5013491;28;20061;-70
2022/05/19 05:26:19;;;;;;;12.23;3.03;;;;;;;19.31;41.65;101348.03;5013591;28;20155;-70
2022/05/19 05:28:45;;;;;;;17.13;2.55;;;;;;;19.22;42.13;101351.00;5013526;28;20088;-70
2022/05/19 05:31:11;;;;;;;9.00;2.22;;;;;;;19.58;41.31;101346.38;5013297;28;20106;-70
2022/05/19 05:33:36;;;;;;;8.15;2.38;;;;;;;19.78;40.87;101348.03;5013384;28;20041;-70
2022/05/19 05:36:02;;;;;;;10.90;2.60;;;;;;;19.51;41.59;101355.28;5013409;28;20038;-70
2022/05/19 05:38:27;;;;;;;15.52;3.53;;;;;;;19.57;41.53;101356.66;5013367;28;20030;-70
2022/05/19 05:40:54;;;;;;;8.32;2.15;;;;;;;19.68;41.63;101356.91;5012964;28;20180;-70
2022/05/19 05:43:21;;;;;;;13.05;3.13;;;;;;;19.83;41.38;101358.03;5013581;28;20061;-71
2022/05/19 05:45:48;;;;;;;13.18;2.63;;;;;;;19.98;41.28;101367.50;5013098;28;20100;-73
2022/05/19 05:48:15;;;;;;;16.52;2.80;;;;;;;19.92;41.57;101369.72;5013185;28;20450;-72
2022/05/19 05:50:40;;;;;;;10.15;2.25;;;;;;;20.32;41.00;101374.97;5014013;28;20389;-72
2022/05/19 05:53:08;;;;;;;12.15;3.33;;;;;;;20.41;40.83;101383.91;5013092;28;20026;-74
2022/05/19 05:55:35;;;;;;;11.77;2.35;;;;;;;20.61;40.67;101378.38;5012987;28;20026;-73
2022/05/19 05:58:06;;;;;;;13.10;2.85;;;;;;;20.54;40.74;101381.81;5013014;28;20104;-72
2022/05/19 06:00:32;;;;;;;17.40;3.67;;;;;;;20.58;40.61;101379.13;5011213;28;20033;-74
2022/05/19 06:02:58;;;;;;;13.68;2.50;;;;;;;20.63;40.39;101379.63;5013000;28;20026;-73
2022/05/19 06:05:24;;;;;;;10.45;3.03;;;;;;;20.64;40.38;101388.78;5012937;28;20048;-73
2022/05/19 06:07:49;;;;;;;10.57;2.20;;;;;;;20.76;40.31;101394.16;5012474;28;20026;-73
2022/05/19 06:10:15;;;;;;;13.20;2.33;;;;;;;20.78;40.26;101389.03;5014157;28;20030;-72
2022/05/19 06:12:41;;;;;;;10.73;2.83;;;;;;;20.68;40.31;101393.22;5013694;28;20492;-74
2022/05/19 06:15:10;;;;;;;14.85;3.33;;;;;;;20.59;40.52;101391.84;5013653;28;20033;-72
2022/05/19 06:17:36;;;;;;;11.93;2.90;;;;;;;20.87;39.93;101386.06;5013485;28;20093;-73
2022/05/19 06:20:01;;;;;;;11.38;2.40;;;;;;;20.92;40.16;101391.28;5013112;28;20029;-72
2022/05/19 06:22:27;;;;;;;8.88;2.30;;;;;;;20.84;40.46;101398.69;5013446;28;20037;-73
2022/05/19 06:24:53;;;;;;;7.22;2.22;;;;;;;20.87;40.00;101406.28;5013366;28;20036;-72
2022/05/19 06:27:18;;;;;;;9.90;2.88;;;;;;;20.99;39.89;101391.44;5012099;28;20025;-72
2022/05/19 06:29:44;;;;;;;7.70;2.00;;;;;;;21.16;39.74;101404.03;5012948;28;20042;-73
2022/05/19 06:32:10;;;;;;;13.88;3.47;;;;;;;21.29;39.55;101406.31;5013313;28;20022;-72
2022/05/19 06:34:36;;;;;;;14.63;3.28;;;;;;;21.38;39.39;101416.38;5013514;28;20030;-72
2022/05/19 06:37:02;;;;;;;12.82;2.85;;;;;;;21.32;39.46;101405.59;5011187;28;20100;-72
2022/05/19 06:39:29;;;;;;;13.70;3.53;;;;;;;21.31;39.66;101406.75;5011775;28;20420;-78
2022/05/19 06:42:00;;;;;;;15.70;3.60;;;;;;;21.63;39.26;101406.50;5013108;28;20048;-72
2022/05/19 06:44:31;;;;;;;9.27;2.88;;;;;;;21.65;39.22;101411.69;5012896;28;20463;-71
2022/05/19 06:46:57;;;;;;;14.80;3.40;;;;;;;21.62;39.47;101418.00;5008234;28;20030;-72
2022/05/19 06:49:22;;;;;;;14.77;3.22;;;;;;;21.60;39.27;101413.59;4996037;28;20033;-72
2022/05/19 06:51:48;;;;;;;11.82;2.55;;;;;;;21.71;39.00;101412.97;4996534;28;20021;-73
2022/05/19 06:54:13;;;;;;;11.40;3.08;;;;;;;21.87;38.66;101417.22;4995599;28;20072;-73
2022/05/19 06:56:39;;;;;;;11.50;2.35;;;;;;;21.92;38.91;101416.09;4995676;28;20093;-73
2022/05/19 06:59:05;;;;;;;15.13;3.45;;;;;;;22.12;38.54;101425.97;4996309;28;20777;-72
2022/05/19 07:01:31;;;;;;;13.57;3.85;;;;;;;22.14;38.65;101417.22;4994413;28;20030;-73
2022/05/19 07:03:57;;;;;;;13.48;2.70;;;;;;;22.16;38.80;101417.69;4996381;28;20018;-73
2022/05/19 07:06:23;;;;;;;8.05;2.50;;;;;;;22.20;38.42;101426.06;4995770;28;20137;-73
2022/05/19 07:08:49;;;;;;;13.27;3.35;;;;;;;22.26;38.28;101410.66;4996519;28;20040;-73
2022/05/19 07:11:27;;;;;;;11.13;2.28;;;;;;;22.31;38.21;101415.91;5010571;28;20033;-72
2022/05/19 07:14:19;;;;;;;12.32;2.55;;;;;;;22.25;38.07;101414.63;5011535;28;20030;-71
2022/05/19 07:16:48;;;;;;;17.83;3.40;;;;;;;22.37;38.11;101414.41;5008549;28;20041;-72
2022/05/19 07:21:58;;;;;;;15.10;3.03;;;;;;;22.45;37.63;101415.31;5016790;28;20075;-71
2022/05/19 07:24:24;;;;;;;13.93;3.35;;;;;;;22.55;37.74;101404.28;5015095;28;20117;-70
2022/05/19 07:26:54;;;;;;;11.75;2.97;;;;;;;22.54;37.72;101410.25;5015081;28;20036;-72
2022/05/19 07:29:21;;;;;;;11.65;3.38;;;;;;;22.51;38.02;101419.34;5014738;28;20037;-70
2022/05/19 07:31:48;;;;;;;15.45;2.20;;;;;;;22.36;38.29;101416.34;5012977;28;20030;-70
2022/05/19 07:34:16;;;;;;;11.48;2.60;;;;;;;22.47;38.00;101436.00;5013040;28;20038;-70
2022/05/19 07:36:42;;;;;;;11.38;2.65;;;;;;;22.35;37.81;101439.00;5014458;28;20025;-71
2022/05/19 07:39:08;;;;;;;19.10;3.40;;;;;;;22.47;37.58;101436.00;5014591;28;20056;-70
2022/05/19 07:41:34;;;;;;;15.73;2.75;;;;;;;22.50;37.81;101431.66;5014938;28;20026;-70
2022/05/19 07:44:00;;;;;;;9.07;3.00;;;;;;;22.48;37.67;101426.47;5001157;28;20407;-72
2022/05/19 07:46:28;;;;;;;13.10;3.25;;;;;;;22.63;37.31;101433.03;5000240;28;20026;-72
2022/05/19 07:48:56;;;;;;;11.68;3.10;;;;;;;22.61;37.50;101438.19;5000350;28;20029;-72
2022/05/19 07:51:23;;;;;;;11.55;3.40;;;;;;;22.54;37.79;101435.31;5001245;28;20028;-71
2022/05/19 07:53:50;;;;;;;8.25;2.55;;;;;;;22.26;38.68;101439.28;4999775;28;20509;-73
2022/05/19 07:56:16;;;;;;;11.63;2.90;;;;;;;22.33;38.59;101433.81;5000846;28;20032;-72
2022/05/19 07:58:41;;;;;;;11.05;2.70;;;;;;;22.51;38.30;101424.91;5000683;28;20079;-72
2022/05/19 08:01:07;;;;;;;11.98;3.13;;;;;;;22.50;38.48;101421.31;4999109;28;20034;-72
2022/05/19 08:03:33;;;;;;;19.27;2.63;;;;;;;22.86;37.72;101427.38;4999578;28;20037;-72
2022/05/19 08:05:59;;;;;;;12.15;2.60;;;;;;;22.82;37.55;101424.53;5000182;28;20030;-72
2022/05/19 08:08:25;;;;;;;12.98;2.65;;;;;;;23.07;37.11;101421.25;5000549;28;20111;-72
2022/05/19 08:10:57;;;;;;;14.50;3.55;;;;;;;23.28;36.48;101423.47;4994684;28;20054;-72
2022/05/19 08:16:07;;;;;;;16.08;3.30;;;;;;;23.51;36.59;101421.28;5000907;28;20088;-71
2022/05/19 08:18:33;;;;;;;12.25;2.90;;;;;;;23.65;36.13;101424.19;5000534;28;20037;-72
2022/05/19 08:21:01;;;;;;;11.82;2.28;;;;;;;23.69;36.53;101424.25;4999135;28;20045;-72
2022/05/19 08:23:32;;;;;;;9.02;2.20;;;;;;;23.61;35.93;101436.53;5000382;28;20472;-72
2022/05/19 08:26:00;;;;;;;10.52;3.05;;;;;;;23.70;35.87;101429.44;5000447;28;20034;-75
2022/05/19 08:28:29;;;;;;;13.57;3.33;;;;;;;23.37;36.57;101421.94;4999995;28;20121;-72
2022/05/19 08:31:04;;;;;;;14.40;2.83;;;;;;;23.70;36.06;101426.63;4991709;28;20120;-72
2022/05/19 08:33:30;;;;;;;8.82;2.22;;;;;;;23.68;35.82;101417.88;4999715;28;20030;-72
2022/05/19 08:35:55;;;;;;;7.60;2.28;;;;;;;23.93;35.39;101432.00;4999322;28;20035;-72
2022/05/19 08:38:21;;;;;;;19.10;2.75;;;;;;;24.04;35.17;101430.09;5012361;28;20468;-72
2022/05/19 08:41:05;;;;;;;8.20;2.42;;;;;;;23.93;35.33;101420.03;5014688;28;20022;-71
2022/05/19 08:43:46;;;;;;;13.95;2.90;;;;;;;24.14;34.82;101425.78;5015121;28;20056;-71
2022/05/19 08:46:23;;;;;;;6.78;2.28;;;;;;;24.14;35.27;101433.34;5014389;28;20539;-72
2022/05/19 08:48:53;;;;;;;8.68;2.30;;;;;;;24.35;34.99;101434.31;5015138;28;20034;-71
2022/05/19 08:51:25;;;;;;;12.00;3.03;;;;;;;24.33;34.95;101433.91;5013801;28;20058;-72
2022/05/19 08:53:50;;;;;;;9.55;1.95;;;;;;;24.42;34.91;101435.53;5013496;28;20034;-71
2022/05/19 08:56:54;;;;;;;11.55;2.47;;;;;;;24.20;34.87;101429.81;5013740;28;20096;-72
2022/05/19 08:59:50;;;;;;;5.78;1.88;;;;;;;24.51;34.10;101444.38;4973630;28;20587;-71
2022/05/19 09:02:34;;;;;;;13.07;3.25;;;;;;;24.43;33.75;101443.53;5014615;28;20104;-71
2022/05/19 09:05:06;;;;;;;13.43;2.15;;;;;;;24.49;34.29;101446.75;5014881;28;20049;-71
2022/05/19 09:10:38;;;;;;;;;;;;;;;24.68;33.81;101438.06;5015180;28;20041;-72
2022/05/19 09:13:21;;;;;;;8.75;2.40;;;;;;;24.76;33.92;101442.47;4995179;28;19972;-71
2022/05/19 09:15:47;;;;;;;13.70;2.80;;;;;;;24.94;33.83;101444.53;4997823;28;20085;-72
2022/05/19 09:18:16;;;;;;;17.77;4.18;;;;;;;24.78;34.19;101442.06;5013525;28;20026;-71
2022/05/19 09:20:55;;;;;;;17.33;2.63;;;;;;;25.04;33.22;101446.59;5014507;28;20112;-71
2022/05/19 09:23:22;;;;;;;13.70;2.88;;;;;;;25.28;33.45;101439.47;5014226;28;20038;-71
2022/05/19 09:25:53;;;;;;;6.10;2.30;;;;;;;25.02;33.60;101443.38;5014233;28;20068;-77
2022/05/19 09:28:18;;;;;;;;;;;;;;;25.17;33.16;101445.03;5014939;28;20396;-71
2022/05/19 09:30:52;;;;;;;10.50;2.08;;;;;;;25.17;33.00;101442.25;5012359;28;19909;-71
2022/05/19 09:33:33;;;;;;;12.55;2.42;;;;;;;25.41;32.75;101449.09;5014319;28;20030;-71
2022/05/19 09:36:00;;;;;;;15.55;2.67;;;;;;;25.55;33.03;101440.69;5014238;28;20030;-71
2022/05/19 09:38:35;;;;;;;8.70;2.00;;;;;;;25.60;32.97;101447.88;5013950;28;20068;-71
2022/05/19 09:41:30;;;;;;;8.07;1.90;;;;;;;25.21;32.44;101456.22;5013654;28;20034;-71
2022/05/19 09:43:58;;;;;;;12.75;3.22;;;;;;;25.56;32.58;101453.50;5015783;28;20077;-72
2022/05/19 09:46:26;;;;;;;4.50;2.08;;;;;;;25.83;32.52;101441.91;5011488;28;20091;-72
2022/05/19 09:49:04;;;;;;;6.13;1.80;;;;;;;25.85;32.36;101437.53;5014106;28;20659;-71
2022/05/19 09:51:42;;;;;;;7.95;2.38;;;;;;;26.13;32.12;101439.47;5013963;28;20025;-72
2022/05/19 09:54:12;;;;;;;6.95;1.88;;;;;;;26.37;32.06;101443.41;5013836;28;20033;-72
2022/05/19 09:56:48;;;;;;;10.32;3.28;;;;;;;26.25;31.87;101433.47;5013923;28;20121;-75
2022/05/19 09:59:21;;;;;;;14.48;2.55;;;;;;;26.38;32.06;101447.84;5013971;28;20040;-81
2022/05/19 10:01:49;;;;;;;10.80;2.63;;;;;;;26.66;31.64;101446.97;5013377;28;20438;-81
2022/05/19 10:04:32;;;;;;;7.07;2.13;;;;;;;26.46;31.74;101449.47;5012510;28;20096;-79
2022/05/19 10:07:17;;;;;;;7.43;2.35;;;;;;;26.09;30.93;101449.09;5013811;28;20026;-80
2022/05/19 10:09:46;;;;;;;5.30;2.05;;;;;;;26.23;31.09;101457.50;5013810;28;20034;-75
2022/05/19 10:12:20;;;;;;;14.00;2.67;;;;;;;26.00;31.01;101447.53;5013692;28;20091;-72
2022/05/19 10:14:50;;;;;;;8.23;2.05;;;;;;;25.32;31.35;101449.47;5012309;28;20511;-72
2022/05/19 10:17:42;;;;;;;7.35;1.60;;;;;;;25.71;31.14;101445.91;5011827;28;20033;-78
2022/05/19 10:20:21;;;;;;;9.50;2.35;;;;;;;26.10;30.89;101443.09;5011733;28;20387;-71
2022/05/19 10:23:14;;;;;;;9.68;1.60;;;;;;;26.23;31.19;101440.69;5010146;28;20026;-71
2022/05/19 10:26:03;;;;;;;8.13;2.45;;;;;;;26.46;31.04;101434.66;5010314;28;20029;-72
2022/05/19 10:31:45;;;;;;;8.77;2.17;;;;;;;26.86;31.05;101433.28;5011511;28;20041;-71
2022/05/19 10:34:22;;;;;;;5.53;1.50;;;;;;;26.69;30.97;101425.75;5011221;28;20036;-71
2022/05/19 10:36:51;;;;;;;12.82;2.20;;;;;;;26.79;30.27;101431.28;5010049;28;20384;-71
2022/05/19 10:39:28;;;;;;;7.90;1.52;;;;;;;26.68;29.87;101429.75;5011243;28;20030;-71
2022/05/19 10:42:09;;;;;;;3.55;1.50;;;;;;;26.43;29.48;101422.22;5011185;28;20083;-71
2022/05/19 10:44:55;;;;;;;7.50;1.40;;;;;;;26.33;29.91;101428.63;5011775;28;20046;-70
2022/05/19 10:47:38;;;;;;;5.55;1.40;;;;;;;26.60;30.33;101436.56;5010620;28;20046;-72
2022/05/19 10:50:18;;;;;;;8.32;1.52;;;;;;;26.77;29.58;101435.72;5013365;28;20026;-82
2022/05/19 10:53:06;;;;;;;24.77;4.15;;;;;;;26.67;29.50;101442.16;5011796;28;20022;-82
2022/05/19 10:56:10;;;;;;;8.43;1.45;;;;;;;26.67;29.68;101444.97;5012065;28;20449;-72
2022/05/19 10:58:59;;;;;;;4.68;1.67;;;;;;;26.33;30.15;101441.84;4997183;28;20115;-72
2022/05/19 11:01:48;;;;;;;10.10;3.00;;;;;;;26.91;29.98;101446.06;5012778;28;20034;-72
2022/05/19 11:04:17;;;;;;;7.43;1.80;;;;;;;27.34;29.76;101436.19;5012917;28;20022;-72
2022/05/19 11:07:16;;;;;;;5.28;1.60;;;;;;;27.51;30.15;101434.50;5012856;28;20022;-72
2022/05/19 11:21:27;;;;;;;5.50;1.55;;;;;;;27.50;29.08;101432.88;5130265;27;20430;-71
2022/05/19 11:24:22;;;;;;;9.50;2.22;;;;;;;27.61;28.34;101428.00;5128614;28;20059;-71
2022/05/19 11:27:15;;;;;;;3.90;1.35;;;;;;;27.67;28.49;101427.56;5130614;28;20417;-71
2022/05/19 11:29:48;;;;;;;8.88;2.28;;;;;;;27.49;29.16;101439.72;5130613;28;20094;-71
2022/05/19 11:32:23;;;;;;;10.88;2.33;;;;;;;27.38;29.12;101439.00;5130103;28;20047;-71
2022/05/19 11:34:54;;;;;;;7.82;1.90;;;;;;;27.54;28.36;101430.06;5130686;28;20028;-71
2022/05/19 11:37:44;;;;;;;5.22;1.77;;;;;;;27.58;28.56;101412.00;5130347;28;20064;-71
2022/05/19 11:40:45;;;;;;;6.00;1.70;;;;;;;27.56;28.34;101424.81;5122134;28;20059;-71
2022/05/19 11:43:16;;;;;;;5.22;1.77;;;;;;;27.57;28.23;101420.81;5100553;28;20046;-71
2022/05/19 11:46:03;;;;;;;8.13;1.88;;;;;;;27.63;27.92;101411.53;5102005;28;20118;-71
2022/05/19 11:58:04;;;;;;;5.68;1.60;;;;;;;27.85;27.59;101406.53;5109642;28;20031;-70
2022/05/19 12:00:38;;;;;;;5.55;2.03;;;;;;;28.05;27.77;101415.19;5108093;28;20027;-70
2022/05/19 12:03:24;;;;;;;5.97;1.75;;;;;;;28.27;28.00;101412.16;5109406;28;20509;-70
2022/05/19 12:06:03;;;;;;;6.72;1.73;;;;;;;28.04;28.25;101410.00;5108733;28;20232;-70
2022/05/19 12:08:30;;;;;;;8.02;2.15;;;;;;;28.20;28.04;101410.22;5110246;28;20474;-70
2022/05/19 12:11:11;;;;;;;7.20;2.08;;;;;;;28.44;27.45;101406.34;5101095;28;20064;-70